Hyundai Shanghai — 5BZM3 — position and weather

sailwx.info

Track history (hours):
 
Tides and Currents Weather Stations Pressure Air Temp Water Temp Dewpoint Dewpoint Depression Visibility Wind Speed Wind Dir Waves Ship Positions

Hyundai Shanghai

Last reported at 2018-Apr-17 09:21 UTC. Time now 2018-Apr-21 02:16 UTC.
Position N 22°29' E 119°53'.

Length 304 m; draft 10.3 m.

Type: Ship (hazmat cat A). MMSI: 212353000.

Date/timePositionNaut miles runAvg speedWind from/ knotsBaromVisibWave heightAir tempDewpointWater temp
2018-Apr-17 09:21N 22°29' E 119°53'721.7
2018-Apr-17 09:00N 22°30' E 120°01'1020.9
2018-Apr-17 08:30N 22°32' E 120°12'612.8
2018-Apr-17 08:00N 22°33' E 120°19'1 1.6
2018-Apr-17 07:30N 22°34' E 120°19'0 0.0
2018-Apr-17 06:58N 22°34' E 120°19'0 0.0
2018-Apr-17 06:28N 22°34' E 120°19'0 0.0
2018-Apr-17 05:58N 22°34' E 120°19'0 0.0
2018-Apr-17 05:28N 22°34' E 120°19'0 0.0
2018-Apr-17 04:58N 22°34' E 120°19'0 0.0
2018-Apr-17 04:28N 22°34' E 120°19'0 0.0
2018-Apr-17 03:58N 22°34' E 120°19'0 0.0
2018-Apr-17 03:25N 22°34' E 120°19'0 0.0
2018-Apr-17 02:58N 22°34' E 120°19'0 0.0
2018-Apr-17 02:28N 22°34' E 120°19'0 0.0
2018-Apr-17 01:58N 22°34' E 120°19'0 0.0
2018-Apr-17 01:22N 22°34' E 120°19'0 0.0
2018-Apr-17 00:58N 22°34' E 120°19'0 0.0
2018-Apr-17 00:28N 22°34' E 120°19'0 0.0
2018-Apr-16 23:58N 22°34' E 120°19'0 0.0
2018-Apr-16 23:25N 22°34' E 120°19'0 0.0
2018-Apr-16 22:58N 22°34' E 120°19'0 0.1
2018-Apr-16 22:28N 22°34' E 120°19'0 0.1
2018-Apr-16 21:58N 22°34' E 120°19'0 0.0
2018-Apr-16 21:28N 22°34' E 120°19'0 0.0
2018-Apr-16 20:58N 22°34' E 120°19'0 0.0
2018-Apr-16 20:28N 22°34' E 120°19'0 0.0
2018-Apr-16 19:55N 22°34' E 120°19'0 0.0
2018-Apr-16 19:28N 22°34' E 120°19'0 0.0
2018-Apr-16 18:58N 22°34' E 120°19'0 0.0
2018-Apr-16 18:28N 22°34' E 120°19'0 0.0
2018-Apr-16 17:58N 22°34' E 120°19'0 0.0
2018-Apr-16 17:28N 22°34' E 120°19'0 0.0
2018-Apr-16 16:58N 22°34' E 120°19'0 0.0
2018-Apr-16 16:28N 22°34' E 120°19'0 0.0
2018-Apr-16 15:58N 22°34' E 120°19'0 0.0
2018-Apr-16 15:28N 22°34' E 120°19'0 0.0
2018-Apr-16 14:58N 22°34' E 120°19'0 0.0
2018-Apr-16 14:28N 22°34' E 120°19'0 0.0
2018-Apr-16 13:55N 22°34' E 120°19'0 0.1
2018-Apr-16 13:30N 22°34' E 120°19'2 3.4
2018-Apr-16 13:01N 22°33' E 120°17'2 4.6
2018-Apr-16 12:30N 22°32' E 120°15'2 4.2
2018-Apr-16 12:00N 22°31' E 120°13'713.6
2018-Apr-16 11:30N 22°38' E 120°10'1121.7
2018-Apr-16 11:00N 22°47' E 120°04'1121.4
2018-Apr-16 10:30N 22°56' E 119°58'1121.1
2018-Apr-16 10:00N 23°07' E 119°55'1120.7
2018-Apr-16 09:28N 23°18' E 119°53'1221.2
2018-Apr-16 08:54N 23°29' E 119°54'820.7
2018-Apr-16 08:30N 23°37' E 119°54'1121.8
2018-Apr-16 07:59N 23°48' E 119°59'9120.7
2018-Apr-16 03:36N 25°07' E 120°48'219.8
2018-Apr-16 03:30N 25°09' E 120°49'1020.2
2018-Apr-16 03:00N 25°17' E 120°56'1020.5
2018-Apr-16 02:30N 25°25' E 121°03'70019.9
2018-Apr-14 15:22N 34°57' E 128°49'2 0.1
2018-Apr-13 14:37N 34°57' E 128°51'0 3.3
2018-Apr-13 14:30N 34°58' E 128°51'0 0.8
2018-Apr-13 13:59N 34°58' E 128°51'10 8.5
2018-Apr-13 12:46N 34°59' E 129°03'4 9.9
2018-Apr-13 12:21N 35°01' E 129°08'3 9.2
2018-Apr-13 12:00N 35°03' E 129°11'5 9.1
2018-Apr-13 11:29N 35°05' E 129°16'63915.5
2018-Apr-11 18:18N 41°18' E 140°16'517.7
2018-Apr-11 18:00N 41°23' E 140°20'1118.4
2018-Apr-11 17:26N 41°29' E 140°31'920.1
2018-Apr-11 16:59N 41°35' E 140°40'918.4
2018-Apr-11 16:31N 41°37' E 140°52'816.8
2018-Apr-11 16:01N 41°36' E 141°03'918.3
2018-Apr-11 15:31N 41°36' E 141°15'1019.0
2018-Apr-11 14:58N 41°35' E 141°29'818.3
2018-Apr-11 14:30N 41°34' E 141°40'  
2018-Apr-09 00:00N 46°42' E 169°00'   270 / 411004.0 4.0 1.0
Track history (hours):
 
Tides and Currents Weather Stations Pressure Air Temp Water Temp Dewpoint Dewpoint Depression Visibility Wind Speed Wind Dir Waves Ship Positions

Hyundai Shanghai

Last reported at 2018-Apr-17 09:21 UTC. Time now 2018-Apr-21 02:16 UTC.
Position N 22°29' E 119°53'.

Length 304 m; draft 10.3 m.

Type: Ship (hazmat cat A). MMSI: 212353000.

Date/timePositionNaut miles runAvg speedWind from/ knotsBaromVisibWave heightAir tempDewpointWater temp
2018-Apr-17 09:21N 22°29' E 119°53'721.7
2018-Apr-17 09:00N 22°30' E 120°01'1020.9
2018-Apr-17 08:30N 22°32' E 120°12'612.8
2018-Apr-17 08:00N 22°33' E 120°19'1 1.6
2018-Apr-17 07:30N 22°34' E 120°19'0 0.0
2018-Apr-17 06:58N 22°34' E 120°19'0 0.0
2018-Apr-17 06:28N 22°34' E 120°19'0 0.0
2018-Apr-17 05:58N 22°34' E 120°19'0 0.0
2018-Apr-17 05:28N 22°34' E 120°19'0 0.0
2018-Apr-17 04:58N 22°34' E 120°19'0 0.0
2018-Apr-17 04:28N 22°34' E 120°19'0 0.0
2018-Apr-17 03:58N 22°34' E 120°19'0 0.0
2018-Apr-17 03:25N 22°34' E 120°19'0 0.0
2018-Apr-17 02:58N 22°34' E 120°19'0 0.0
2018-Apr-17 02:28N 22°34' E 120°19'0 0.0
2018-Apr-17 01:58N 22°34' E 120°19'0 0.0
2018-Apr-17 01:22N 22°34' E 120°19'0 0.0
2018-Apr-17 00:58N 22°34' E 120°19'0 0.0
2018-Apr-17 00:28N 22°34' E 120°19'0 0.0
2018-Apr-16 23:58N 22°34' E 120°19'0 0.0
2018-Apr-16 23:25N 22°34' E 120°19'0 0.0
2018-Apr-16 22:58N 22°34' E 120°19'0 0.1
2018-Apr-16 22:28N 22°34' E 120°19'0 0.1
2018-Apr-16 21:58N 22°34' E 120°19'0 0.0
2018-Apr-16 21:28N 22°34' E 120°19'0 0.0
2018-Apr-16 20:58N 22°34' E 120°19'0 0.0
2018-Apr-16 20:28N 22°34' E 120°19'0 0.0
2018-Apr-16 19:55N 22°34' E 120°19'0 0.0
2018-Apr-16 19:28N 22°34' E 120°19'0 0.0
2018-Apr-16 18:58N 22°34' E 120°19'0 0.0
2018-Apr-16 18:28N 22°34' E 120°19'0 0.0
2018-Apr-16 17:58N 22°34' E 120°19'0 0.0
2018-Apr-16 17:28N 22°34' E 120°19'0 0.0
2018-Apr-16 16:58N 22°34' E 120°19'0 0.0
2018-Apr-16 16:28N 22°34' E 120°19'0 0.0
2018-Apr-16 15:58N 22°34' E 120°19'0 0.0
2018-Apr-16 15:28N 22°34' E 120°19'0 0.0
2018-Apr-16 14:58N 22°34' E 120°19'0 0.0
2018-Apr-16 14:28N 22°34' E 120°19'0 0.0
2018-Apr-16 13:55N 22°34' E 120°19'0 0.1
2018-Apr-16 13:30N 22°34' E 120°19'2 3.4
2018-Apr-16 13:01N 22°33' E 120°17'2 4.6
2018-Apr-16 12:30N 22°32' E 120°15'2 4.2
2018-Apr-16 12:00N 22°31' E 120°13'713.6
2018-Apr-16 11:30N 22°38' E 120°10'1121.7
2018-Apr-16 11:00N 22°47' E 120°04'1121.4
2018-Apr-16 10:30N 22°56' E 119°58'1121.1
2018-Apr-16 10:00N 23°07' E 119°55'1120.7
2018-Apr-16 09:28N 23°18' E 119°53'1221.2
2018-Apr-16 08:54N 23°29' E 119°54'820.7
2018-Apr-16 08:30N 23°37' E 119°54'1121.8
2018-Apr-16 07:59N 23°48' E 119°59'9120.7
2018-Apr-16 03:36N 25°07' E 120°48'219.8
2018-Apr-16 03:30N 25°09' E 120°49'1020.2
2018-Apr-16 03:00N 25°17' E 120°56'1020.5
2018-Apr-16 02:30N 25°25' E 121°03'70019.9
2018-Apr-14 15:22N 34°57' E 128°49'2 0.1
2018-Apr-13 14:37N 34°57' E 128°51'0 3.3
2018-Apr-13 14:30N 34°58' E 128°51'0 0.8
2018-Apr-13 13:59N 34°58' E 128°51'10 8.5
2018-Apr-13 12:46N 34°59' E 129°03'4 9.9
2018-Apr-13 12:21N 35°01' E 129°08'3 9.2
2018-Apr-13 12:00N 35°03' E 129°11'5 9.1
2018-Apr-13 11:29N 35°05' E 129°16'63915.5
2018-Apr-11 18:18N 41°18' E 140°16'517.7
2018-Apr-11 18:00N 41°23' E 140°20'1118.4
2018-Apr-11 17:26N 41°29' E 140°31'920.1
2018-Apr-11 16:59N 41°35' E 140°40'918.4
2018-Apr-11 16:31N 41°37' E 140°52'816.8
2018-Apr-11 16:01N 41°36' E 141°03'918.3
2018-Apr-11 15:31N 41°36' E 141°15'1019.0
2018-Apr-11 14:58N 41°35' E 141°29'818.3
2018-Apr-11 14:30N 41°34' E 141°40'  
2018-Apr-09 00:00N 46°42' E 169°00'   270 / 411004.0 4.0 1.0

Dump ship's entire track history